createdAt,value
2022-12-09T16:40:00.618Z,38.75
2022-12-09T16:42:36.503Z,37.67
2022-12-09T16:45:31.425Z,37.00
2022-12-09T16:48:06.034Z,32.80
2022-12-09T16:50:40.528Z,32.72
2022-12-09T16:53:18.934Z,31.33
2022-12-09T16:55:55.812Z,31.67
2022-12-09T16:58:24.908Z,35.65
2022-12-09T17:00:54.014Z,32.58
2022-12-09T17:03:34.173Z,31.20
2022-12-09T17:06:03.000Z,38.05
2022-12-09T17:08:31.852Z,34.78
2022-12-09T17:11:02.731Z,30.13
2022-12-09T17:13:31.492Z,31.58
2022-12-09T17:16:01.151Z,31.08
2022-12-09T17:18:30.804Z,33.88
2022-12-09T17:21:04.034Z,32.08
2022-12-09T17:23:39.197Z,34.58
2022-12-09T17:26:14.148Z,31.38
2022-12-09T17:28:44.794Z,30.15
2022-12-09T17:31:16.391Z,35.45
2022-12-09T17:33:45.346Z,34.17
2022-12-09T17:36:22.564Z,30.83
2022-12-09T17:38:55.409Z,32.72
2022-12-09T17:41:26.095Z,36.22
2022-12-09T17:44:01.186Z,36.78
2022-12-09T17:46:30.138Z,31.10
2022-12-09T17:49:06.990Z,33.28
2022-12-09T17:51:36.675Z,31.65
2022-12-09T17:54:14.189Z,29.35
2022-12-09T17:56:46.127Z,30.85
2022-12-09T18:01:54.297Z,36.03
2022-12-09T18:04:23.243Z,30.52
2022-12-09T18:06:51.957Z,32.47
2022-12-09T18:09:26.068Z,33.33
2022-12-09T18:11:56.882Z,36.78
2022-12-09T18:14:49.359Z,29.95
2022-12-09T18:17:33.373Z,30.95
2022-12-09T18:20:57.454Z,28.90
2022-12-09T18:23:29.852Z,27.73
2022-12-09T18:26:08.351Z,29.73
2022-12-09T18:28:47.647Z,28.48
2022-12-09T18:31:23.929Z,31.77
2022-12-09T18:33:56.419Z,29.42
2022-12-09T18:36:28.264Z,33.85
2022-12-09T18:41:28.612Z,31.35
2022-12-09T18:44:04.084Z,33.72
2022-12-09T18:46:35.807Z,28.92
2022-12-09T18:49:07.122Z,30.67
2022-12-09T18:51:36.221Z,24.08
2022-12-09T18:54:59.682Z,30.17
2022-12-09T18:57:03.277Z,29.02
2022-12-09T18:59:34.256Z,27.52
2022-12-09T19:02:03.086Z,29.87
2022-12-09T19:04:32.103Z,28.08
2022-12-09T19:07:01.893Z,29.58
2022-12-09T19:09:34.132Z,32.92
2022-12-09T19:12:30.039Z,32.28
2022-12-09T19:14:55.380Z,28.90
2022-12-09T19:17:24.185Z,30.52
2022-12-09T19:19:52.943Z,30.13
2022-12-09T19:22:22.015Z,30.65
2022-12-09T19:24:50.767Z,30.92
2022-12-09T19:27:19.470Z,32.38
2022-12-09T19:29:48.238Z,29.60
2022-12-09T19:32:51.373Z,32.58
2022-12-09T19:35:08.854Z,33.08
2022-12-09T19:37:37.654Z,34.35
2022-12-09T19:40:08.904Z,32.42
2022-12-09T19:42:39.135Z,32.80
2022-12-09T19:45:13.908Z,34.42
2022-12-09T19:47:45.892Z,36.88
2022-12-09T19:50:14.687Z,35.88
2022-12-09T19:52:43.697Z,34.03
2022-12-09T20:11:35.027Z,42.28
2022-12-09T20:14:06.301Z,40.40
2022-12-09T20:16:35.579Z,40.03
2022-12-09T20:19:05.019Z,38.20
2022-12-09T20:21:34.698Z,37.90
2022-12-09T20:24:04.492Z,38.20
2022-12-09T20:26:41.900Z,38.28
2022-12-09T20:29:12.460Z,38.47
2022-12-09T20:31:44.584Z,38.45
2022-12-09T20:34:17.427Z,38.13
2022-12-09T20:36:51.911Z,38.25
2022-12-09T20:39:22.474Z,39.47
2022-12-09T20:41:55.142Z,38.70
2022-12-09T20:44:23.843Z,37.70
2022-12-09T20:47:00.405Z,40.80
2022-12-09T20:49:29.672Z,39.40
2022-12-09T20:51:58.668Z,39.42
2022-12-09T20:54:27.545Z,41.45
2022-12-09T20:56:58.291Z,40.05
2022-12-09T20:59:27.084Z,39.58
2022-12-09T21:01:56.062Z,41.90
2022-12-09T21:04:25.316Z,43.45
2022-12-09T21:06:54.326Z,45.95
2022-12-09T21:09:26.443Z,45.50
2022-12-09T21:11:57.384Z,44.05
2022-12-09T21:14:32.840Z,41.30
2022-12-09T21:17:02.348Z,43.47
2022-12-09T21:19:33.877Z,41.60
2022-12-09T21:22:03.482Z,42.20
2022-12-09T21:24:32.524Z,40.15
2022-12-09T21:27:03.260Z,41.65
2022-12-09T21:29:32.605Z,40.15
2022-12-09T21:32:02.466Z,42.45
2022-12-09T21:34:31.471Z,39.72
2022-12-09T21:37:00.715Z,39.25
2022-12-09T21:39:29.951Z,40.05
2022-12-09T21:41:59.032Z,39.55
2022-12-09T21:44:30.103Z,39.78
2022-12-09T21:47:00.905Z,41.90
2022-12-09T21:49:32.748Z,39.25
2022-12-09T21:54:34.751Z,38.40
2022-12-09T21:57:09.682Z,38.38
2022-12-09T21:59:44.146Z,39.35
2022-12-09T22:02:14.801Z,38.92
2022-12-09T22:04:48.925Z,38.97
2022-12-09T22:07:22.749Z,37.97
2022-12-09T22:09:52.264Z,38.65
2022-12-09T22:12:24.945Z,38.65
2022-12-09T22:14:57.872Z,38.25
2022-12-09T22:17:30.769Z,39.15
2022-12-09T22:20:33.211Z,39.20
2022-12-09T22:22:48.472Z,38.08
2022-12-09T22:25:17.427Z,39.33
2022-12-09T22:27:46.251Z,40.35
2022-12-09T22:30:17.529Z,38.47
2022-12-09T22:32:50.913Z,38.95
2022-12-09T22:35:27.511Z,38.95
2022-12-09T22:37:59.136Z,38.58
2022-12-09T22:42:56.939Z,36.60
2022-12-09T22:45:27.624Z,37.83
2022-12-09T22:47:56.687Z,39.78
2022-12-09T22:50:25.742Z,39.58
2022-12-09T22:52:54.469Z,41.35
2022-12-09T22:55:23.247Z,41.17
2022-12-09T22:57:53.109Z,40.70
2022-12-09T23:00:26.312Z,41.17
2022-12-09T23:02:57.324Z,41.55
2022-12-09T23:05:29.134Z,41.58
2022-12-09T23:08:02.088Z,43.45
2022-12-09T23:10:30.910Z,44.60
2022-12-09T23:12:59.984Z,42.20
2022-12-09T23:15:28.819Z,45.35
2022-12-09T23:17:59.448Z,43.55
2022-12-09T23:20:28.827Z,45.25
2022-12-09T23:22:57.686Z,45.75
2022-12-09T23:25:26.567Z,46.55
2022-12-09T23:27:55.291Z,45.40
2022-12-09T23:30:24.123Z,46.63
2022-12-09T23:32:52.813Z,45.28
2022-12-09T23:35:23.433Z,46.08
2022-12-09T23:37:52.162Z,47.13
2022-12-09T23:40:20.911Z,47.70
2022-12-09T23:42:53.571Z,48.13
2022-12-09T23:45:22.304Z,47.38
2022-12-09T23:47:50.965Z,48.05
2022-12-09T23:50:20.064Z,47.63
2022-12-09T23:52:52.861Z,49.75
2022-12-09T23:55:21.517Z,47.22
2022-12-09T23:57:50.211Z,48.88
